sensor_id;sensor_type;location;lat;lon;timestamp;pressure;altitude;pressure_sealevel;temperature;humidity
75013;BME280;63567;49.956;20.130;2023-03-23T00:01:01;96673.69;;;10.06;64.61
75013;BME280;63567;49.956;20.130;2023-03-23T00:03:26;96672.50;;;10.02;64.41
75013;BME280;63567;49.956;20.130;2023-03-23T00:05:54;96671.66;;;10.01;64.49
75013;BME280;63567;49.956;20.130;2023-03-23T00:08:27;96672.28;;;10.03;64.43
75013;BME280;63567;49.956;20.130;2023-03-23T00:10:53;96667.81;;;10.04;64.30
75013;BME280;63567;49.956;20.130;2023-03-23T00:13:22;96670.25;;;10.05;64.66
75013;BME280;63567;49.956;20.130;2023-03-23T00:15:47;96663.59;;;10.10;64.36
75013;BME280;63567;49.956;20.130;2023-03-23T00:18:14;96660.97;;;10.10;64.23
75013;BME280;63567;49.956;20.130;2023-03-23T00:20:51;96666.25;;;10.10;63.85
75013;BME280;63567;49.956;20.130;2023-03-23T00:23:18;96669.31;;;10.13;64.01
75013;BME280;63567;49.956;20.130;2023-03-23T00:25:48;96666.69;;;10.13;64.42
75013;BME280;63567;49.956;20.130;2023-03-23T00:28:15;96665.03;;;10.12;63.83
75013;BME280;63567;49.956;20.130;2023-03-23T00:30:41;96664.84;;;10.14;64.23
75013;BME280;63567;49.956;20.130;2023-03-23T00:33:09;96657.34;;;10.11;64.12
75013;BME280;63567;49.956;20.130;2023-03-23T00:35:38;96663.03;;;10.14;64.12
75013;BME280;63567;49.956;20.130;2023-03-23T00:38:03;96664.44;;;10.17;63.88
75013;BME280;63567;49.956;20.130;2023-03-23T00:40:29;96655.75;;;10.16;63.67
75013;BME280;63567;49.956;20.130;2023-03-23T00:42:56;96652.50;;;10.14;63.97
75013;BME280;63567;49.956;20.130;2023-03-23T00:45:21;96649.84;;;10.14;64.10
75013;BME280;63567;49.956;20.130;2023-03-23T00:47:49;96644.41;;;10.16;63.97
75013;BME280;63567;49.956;20.130;2023-03-23T00:50:16;96646.44;;;10.20;63.63
75013;BME280;63567;49.956;20.130;2023-03-23T00:52:43;96648.47;;;10.18;64.00
75013;BME280;63567;49.956;20.130;2023-03-23T00:55:08;96644.63;;;10.21;63.93
75013;BME280;63567;49.956;20.130;2023-03-23T00:57:33;96648.47;;;10.18;63.84
75013;BME280;63567;49.956;20.130;2023-03-23T00:59:59;96643.38;;;10.17;64.14
75013;BME280;63567;49.956;20.130;2023-03-23T01:02:24;96640.56;;;10.18;64.30
75013;BME280;63567;49.956;20.130;2023-03-23T01:04:50;96637.94;;;10.18;63.84
75013;BME280;63567;49.956;20.130;2023-03-23T01:07:18;96630.22;;;10.17;63.74
75013;BME280;63567;49.956;20.130;2023-03-23T01:09:43;96629.25;;;10.18;64.04
75013;BME280;63567;49.956;20.130;2023-03-23T01:12:12;96635.94;;;10.20;63.99
75013;BME280;63567;49.956;20.130;2023-03-23T01:14:37;96629.84;;;10.20;63.50
75013;BME280;63567;49.956;20.130;2023-03-23T01:17:03;96629.84;;;10.20;64.09
75013;BME280;63567;49.956;20.130;2023-03-23T01:19:28;96629.06;;;10.19;63.37
75013;BME280;63567;49.956;20.130;2023-03-23T01:21:53;96627.22;;;10.20;63.80
75013;BME280;63567;49.956;20.130;2023-03-23T01:24:19;96628.22;;;10.19;63.74
75013;BME280;63567;49.956;20.130;2023-03-23T01:26:44;96626.97;;;10.15;63.93
75013;BME280;63567;49.956;20.130;2023-03-23T01:29:10;96629.22;;;10.11;64.50
75013;BME280;63567;49.956;20.130;2023-03-23T01:31:36;96627.78;;;10.08;64.26
75013;BME280;63567;49.956;20.130;2023-03-23T01:34:02;96621.31;;;10.11;64.15
75013;BME280;63567;49.956;20.130;2023-03-23T01:36:29;96618.25;;;10.07;64.38
75013;BME280;63567;49.956;20.130;2023-03-23T01:38:57;96621.88;;;10.00;64.45
75013;BME280;63567;49.956;20.130;2023-03-23T01:41:23;96627.31;;;9.98;64.49
75013;BME280;63567;49.956;20.130;2023-03-23T01:44:03;96622.06;;;9.98;64.46
75013;BME280;63567;49.956;20.130;2023-03-23T01:46:31;96615.59;;;10.01;64.07
75013;BME280;63567;49.956;20.130;2023-03-23T01:48:58;96624.09;;;10.03;64.21
75013;BME280;63567;49.956;20.130;2023-03-23T01:51:26;96623.06;;;10.04;64.71
75013;BME280;63567;49.956;20.130;2023-03-23T01:53:55;96623.28;;;10.02;64.46
75013;BME280;63567;49.956;20.130;2023-03-23T01:56:24;96619.47;;;10.05;64.08
75013;BME280;63567;49.956;20.130;2023-03-23T01:58:53;96625.72;;;10.04;64.25
75013;BME280;63567;49.956;20.130;2023-03-23T02:01:19;96622.09;;;10.05;64.41
75013;BME280;63567;49.956;20.130;2023-03-23T02:03:47;96626.53;;;10.04;64.79
75013;BME280;63567;49.956;20.130;2023-03-23T02:06:13;96616.78;;;9.98;64.50
75013;BME280;63567;49.956;20.130;2023-03-23T02:08:40;96616.38;;;10.01;64.54
75013;BME280;63567;49.956;20.130;2023-03-23T02:11:18;96619.03;;;10.01;64.26
75013;BME280;63567;49.956;20.130;2023-03-23T02:13:45;96616.03;;;10.04;64.44
75013;BME280;63567;49.956;20.130;2023-03-23T02:16:31;96616.41;;;10.08;64.76
75013;BME280;63567;49.956;20.130;2023-03-23T02:25:06;96624.56;;;10.13;64.62
75013;BME280;63567;49.956;20.130;2023-03-23T02:28:19;96623.72;;;10.13;64.37
75013;BME280;63567;49.956;20.130;2023-03-23T02:33:52;96626.13;;;10.07;64.51
75013;BME280;63567;49.956;20.130;2023-03-23T02:36:35;96620.25;;;10.05;64.58
75013;BME280;63567;49.956;20.130;2023-03-23T02:39:19;96622.88;;;10.05;64.37
75013;BME280;63567;49.956;20.130;2023-03-23T02:41:56;96624.53;;;10.06;64.38
75013;BME280;63567;49.956;20.130;2023-03-23T02:44:24;96621.28;;;10.04;64.78
75013;BME280;63567;49.956;20.130;2023-03-23T02:46:56;96632.19;;;10.01;64.43
75013;BME280;63567;49.956;20.130;2023-03-23T02:49:24;96624.88;;;9.97;64.83
75013;BME280;63567;49.956;20.130;2023-03-23T02:51:50;96632.16;;;9.95;64.40
75013;BME280;63567;49.956;20.130;2023-03-23T02:54:18;96627.69;;;9.95;64.80
75013;BME280;63567;49.956;20.130;2023-03-23T02:56:45;96631.34;;;9.94;64.62
75013;BME280;63567;49.956;20.130;2023-03-23T02:59:12;96626.25;;;9.93;64.89
75013;BME280;63567;49.956;20.130;2023-03-23T03:04:09;96626.47;;;9.91;64.70
75013;BME280;63567;49.956;20.130;2023-03-23T03:09:49;96625.81;;;9.82;64.68
75013;BME280;63567;49.956;20.130;2023-03-23T03:12:42;96619.09;;;9.80;65.02
75013;BME280;63567;49.956;20.130;2023-03-23T03:15:17;96620.56;;;9.82;64.89
75013;BME280;63567;49.956;20.130;2023-03-23T03:17:58;96617.13;;;9.88;64.81
75013;BME280;63567;49.956;20.130;2023-03-23T03:20:26;96609.25;;;9.88;64.81
75013;BME280;63567;49.956;20.130;2023-03-23T03:22:53;96613.50;;;9.90;64.68
75013;BME280;63567;49.956;20.130;2023-03-23T03:25:20;96614.94;;;9.92;64.66
75013;BME280;63567;49.956;20.130;2023-03-23T03:27:47;96611.09;;;9.95;64.72
75013;BME280;63567;49.956;20.130;2023-03-23T03:30:15;96609.88;;;9.97;64.35
75013;BME280;63567;49.956;20.130;2023-03-23T03:32:48;96607.88;;;9.99;64.70
75013;BME280;63567;49.956;20.130;2023-03-23T03:35:16;96610.72;;;9.98;64.19
75013;BME280;63567;49.956;20.130;2023-03-23T03:37:42;96612.34;;;9.99;64.68
75013;BME280;63567;49.956;20.130;2023-03-23T03:40:10;96607.88;;;9.99;64.19
75013;BME280;63567;49.956;20.130;2023-03-23T03:42:38;96601.81;;;9.99;64.22
75013;BME280;63567;49.956;20.130;2023-03-23T03:45:05;96606.44;;;9.97;64.73
75013;BME280;63567;49.956;20.130;2023-03-23T03:47:31;96605.84;;;9.95;64.68
75013;BME280;63567;49.956;20.130;2023-03-23T03:49:56;96607.66;;;9.94;64.32
75013;BME280;63567;49.956;20.130;2023-03-23T03:52:21;96608.69;;;9.93;64.43
75013;BME280;63567;49.956;20.130;2023-03-23T03:54:46;96605.63;;;9.90;64.78
75013;BME280;63567;49.956;20.130;2023-03-23T03:57:12;96613.31;;;9.91;64.72
75013;BME280;63567;49.956;20.130;2023-03-23T03:59:37;96601.34;;;9.88;64.80
75013;BME280;63567;49.956;20.130;2023-03-23T04:02:02;96607.00;;;9.85;64.49
75013;BME280;63567;49.956;20.130;2023-03-23T04:04:29;96605.19;;;9.86;64.76
75013;BME280;63567;49.956;20.130;2023-03-23T04:06:54;96602.94;;;9.83;64.84
75013;BME280;63567;49.956;20.130;2023-03-23T04:09:20;96603.31;;;9.80;64.94
75013;BME280;63567;49.956;20.130;2023-03-23T04:11:46;96607.59;;;9.81;64.93
75013;BME280;63567;49.956;20.130;2023-03-23T04:14:12;96601.72;;;9.79;65.13
75013;BME280;63567;49.956;20.130;2023-03-23T04:16:37;96598.47;;;9.77;64.75
75013;BME280;63567;49.956;20.130;2023-03-23T04:19:02;96597.84;;;9.75;65.22
75013;BME280;63567;49.956;20.130;2023-03-23T04:21:28;96601.50;;;9.74;65.24
75013;BME280;63567;49.956;20.130;2023-03-23T04:23:57;96594.59;;;9.73;65.08
75013;BME280;63567;49.956;20.130;2023-03-23T04:26:25;96601.25;;;9.69;65.18
75013;BME280;63567;49.956;20.130;2023-03-23T04:28:51;96609.31;;;9.67;64.96
75013;BME280;63567;49.956;20.130;2023-03-23T04:31:17;96599.19;;;9.64;65.28
75013;BME280;63567;49.956;20.130;2023-03-23T04:33:42;96596.38;;;9.65;64.88
75013;BME280;63567;49.956;20.130;2023-03-23T04:36:07;96602.00;;;9.62;64.95
75013;BME280;63567;49.956;20.130;2023-03-23T04:38:33;96597.59;;;9.63;65.06
75013;BME280;63567;49.956;20.130;2023-03-23T04:41:00;96598.13;;;9.58;65.00
75013;BME280;63567;49.956;20.130;2023-03-23T04:43:27;96598.97;;;9.59;65.29
75013;BME280;63567;49.956;20.130;2023-03-23T04:45:57;96597.94;;;9.60;65.50
75013;BME280;63567;49.956;20.130;2023-03-23T04:48:26;96603.03;;;9.61;65.34
75013;BME280;63567;49.956;20.130;2023-03-23T04:50:53;96594.72;;;9.64;65.66
75013;BME280;63567;49.956;20.130;2023-03-23T04:53:19;96594.72;;;9.64;65.04
75013;BME280;63567;49.956;20.130;2023-03-23T04:55:46;96591.91;;;9.66;65.01
75013;BME280;63567;49.956;20.130;2023-03-23T04:58:12;96601.25;;;9.69;65.06
75013;BME280;63567;49.956;20.130;2023-03-23T05:00:39;96598.00;;;9.66;65.19
75013;BME280;63567;49.956;20.130;2023-03-23T05:03:05;96589.09;;;9.68;64.99
75013;BME280;63567;49.956;20.130;2023-03-23T05:05:33;96592.72;;;9.66;65.13
75013;BME280;63567;49.956;20.130;2023-03-23T05:07:59;96590.97;;;9.74;64.80
75013;BME280;63567;49.956;20.130;2023-03-23T05:10:25;96599.25;;;9.77;65.04
75013;BME280;63567;49.956;20.130;2023-03-23T05:12:50;96595.09;;;9.90;64.00
75013;BME280;63567;49.956;20.130;2023-03-23T05:15:16;96606.88;;;10.00;64.35
75013;BME280;63567;49.956;20.130;2023-03-23T05:17:43;96608.13;;;10.04;63.59
75013;BME280;63567;49.956;20.130;2023-03-23T05:20:13;96597.19;;;10.07;63.86
75013;BME280;63567;49.956;20.130;2023-03-23T05:22:40;96608.38;;;10.16;63.63
75013;BME280;63567;49.956;20.130;2023-03-23T05:25:06;96597.88;;;10.23;63.57
75013;BME280;63567;49.956;20.130;2023-03-23T05:27:34;96609.63;;;10.27;63.26
75013;BME280;63567;49.956;20.130;2023-03-23T05:30:00;96606.44;;;10.32;62.91
75013;BME280;63567;49.956;20.130;2023-03-23T05:32:27;96613.34;;;10.39;62.60
75013;BME280;63567;49.956;20.130;2023-03-23T05:34:55;96605.06;;;10.49;62.29
75013;BME280;63567;49.956;20.130;2023-03-23T05:37:22;96614.00;;;10.55;62.03
75013;BME280;63567;49.956;20.130;2023-03-23T05:39:47;96608.94;;;10.60;61.93
75013;BME280;63567;49.956;20.130;2023-03-23T05:42:12;96607.75;;;10.69;61.81
75013;BME280;63567;49.956;20.130;2023-03-23T05:44:38;96601.50;;;10.83;61.23
75013;BME280;63567;49.956;20.130;2023-03-23T05:47:03;96606.41;;;10.93;60.75
75013;BME280;63567;49.956;20.130;2023-03-23T05:49:28;96600.53;;;10.98;60.87
75013;BME280;63567;49.956;20.130;2023-03-23T05:51:53;96603.34;;;11.03;61.06
75013;BME280;63567;49.956;20.130;2023-03-23T05:54:19;96598.88;;;11.10;60.38
75013;BME280;63567;49.956;20.130;2023-03-23T05:56:44;96595.06;;;11.19;59.38
75013;BME280;63567;49.956;20.130;2023-03-23T05:59:09;96602.16;;;11.32;59.63
75013;BME280;63567;49.956;20.130;2023-03-23T06:01:36;96605.41;;;11.41;59.44
75013;BME280;63567;49.956;20.130;2023-03-23T06:04:01;96604.16;;;11.50;59.16
75013;BME280;63567;49.956;20.130;2023-03-23T06:06:28;96604.56;;;11.60;59.32
75013;BME280;63567;49.956;20.130;2023-03-23T06:08:55;96608.19;;;11.72;58.46
75013;BME280;63567;49.956;20.130;2023-03-23T06:11:20;96606.56;;;11.91;58.34
75013;BME280;63567;49.956;20.130;2023-03-23T06:13:46;96612.41;;;12.07;57.31
75013;BME280;63567;49.956;20.130;2023-03-23T06:16:12;96609.50;;;12.22;57.46
75013;BME280;63567;49.956;20.130;2023-03-23T06:18:38;96606.22;;;12.33;57.17
75013;BME280;63567;49.956;20.130;2023-03-23T06:21:06;96612.03;;;12.48;57.07
75013;BME280;63567;49.956;20.130;2023-03-23T06:23:32;96607.91;;;12.59;56.74
75013;BME280;63567;49.956;20.130;2023-03-23T06:26:00;96606.44;;;12.70;55.74
75013;BME280;63567;49.956;20.130;2023-03-23T06:28:26;96604.56;;;12.77;56.04
75013;BME280;63567;49.956;20.130;2023-03-23T06:30:52;96612.88;;;12.81;55.58
75013;BME280;63567;49.956;20.130;2023-03-23T06:33:17;96607.34;;;12.89;55.75
75013;BME280;63567;49.956;20.130;2023-03-23T06:35:43;96614.78;;;12.99;55.72
75013;BME280;63567;49.956;20.130;2023-03-23T06:38:09;96609.81;;;13.15;55.64
75013;BME280;63567;49.956;20.130;2023-03-23T06:40:34;96601.22;;;13.20;54.06
75013;BME280;63567;49.956;20.130;2023-03-23T06:43:01;96604.63;;;13.34;54.46
75013;BME280;63567;49.956;20.130;2023-03-23T06:45:26;96603.25;;;13.50;54.37
75013;BME280;63567;49.956;20.130;2023-03-23T06:47:52;96602.59;;;13.54;53.08
75013;BME280;63567;49.956;20.130;2023-03-23T06:50:17;96611.44;;;13.67;54.10
75013;BME280;63567;49.956;20.130;2023-03-23T06:52:47;96613.31;;;13.85;53.18
75013;BME280;63567;49.956;20.130;2023-03-23T06:55:13;96600.44;;;13.88;52.63
75013;BME280;63567;49.956;20.130;2023-03-23T06:57:39;96607.44;;;14.01;52.21
75013;BME280;63567;49.956;20.130;2023-03-23T07:00:05;96611.53;;;14.15;51.97
75013;BME280;63567;49.956;20.130;2023-03-23T07:02:34;96603.81;;;14.32;51.23
75013;BME280;63567;49.956;20.130;2023-03-23T07:05:00;96600.41;;;14.44;51.05
75013;BME280;63567;49.956;20.130;2023-03-23T07:07:26;96611.44;;;14.59;50.64
75013;BME280;63567;49.956;20.130;2023-03-23T07:09:51;96615.34;;;14.75;51.00
75013;BME280;63567;49.956;20.130;2023-03-23T07:12:16;96609.75;;;14.95;49.85
75013;BME280;63567;49.956;20.130;2023-03-23T07:14:42;96611.34;;;14.96;50.06
75013;BME280;63567;49.956;20.130;2023-03-23T07:17:07;96608.94;;;14.94;49.27
75013;BME280;63567;49.956;20.130;2023-03-23T07:19:32;96611.72;;;15.11;49.32
75013;BME280;63567;49.956;20.130;2023-03-23T07:21:58;96608.75;;;15.08;49.78
75013;BME280;63567;49.956;20.130;2023-03-23T07:24:23;96613.47;;;15.06;49.43
75013;BME280;63567;49.956;20.130;2023-03-23T07:26:48;96619.69;;;15.11;48.70
75013;BME280;63567;49.956;20.130;2023-03-23T07:29:14;96623.50;;;15.15;48.75
75013;BME280;63567;49.956;20.130;2023-03-23T07:31:39;96619.84;;;15.16;49.02
75013;BME280;63567;49.956;20.130;2023-03-23T07:34:04;96618.09;;;15.22;49.11
75013;BME280;63567;49.956;20.130;2023-03-23T07:36:30;96626.91;;;15.34;49.05
75013;BME280;63567;49.956;20.130;2023-03-23T07:38:55;96621.28;;;15.43;48.39
75013;BME280;63567;49.956;20.130;2023-03-23T07:41:21;96634.66;;;15.48;47.64
75013;BME280;63567;49.956;20.130;2023-03-23T07:43:47;96638.09;;;15.48;49.54
75013;BME280;63567;49.956;20.130;2023-03-23T07:46:13;96631.09;;;15.42;48.56
75013;BME280;63567;49.956;20.130;2023-03-23T07:48:38;96642.63;;;15.36;48.70
75013;BME280;63567;49.956;20.130;2023-03-23T07:51:05;96638.81;;;15.44;48.92
75013;BME280;63567;49.956;20.130;2023-03-23T07:53:30;96631.56;;;15.63;47.41
75013;BME280;63567;49.956;20.130;2023-03-23T07:55:57;96633.19;;;15.64;48.33
75013;BME280;63567;49.956;20.130;2023-03-23T07:58:22;96631.56;;;15.51;47.70
75013;BME280;63567;49.956;20.130;2023-03-23T08:00:47;96638.00;;;15.43;48.52
75013;BME280;63567;49.956;20.130;2023-03-23T08:03:14;96635.56;;;15.41;49.16
75013;BME280;63567;49.956;20.130;2023-03-23T08:05:40;96636.72;;;15.46;48.78
75013;BME280;63567;49.956;20.130;2023-03-23T08:08:08;96633.06;;;15.70;48.57
75013;BME280;63567;49.956;20.130;2023-03-23T08:10:34;96634.09;;;16.05;46.79
75013;BME280;63567;49.956;20.130;2023-03-23T08:13:00;96631.75;;;16.32;46.65
75013;BME280;63567;49.956;20.130;2023-03-23T08:15:25;96634.50;;;16.49;45.99
75013;BME280;63567;49.956;20.130;2023-03-23T08:17:51;96637.97;;;16.49;45.24
75013;BME280;63567;49.956;20.130;2023-03-23T08:20:17;96647.00;;;16.48;45.30
75013;BME280;63567;49.956;20.130;2023-03-23T08:22:44;96644.56;;;16.47;46.19
75013;BME280;63567;49.956;20.130;2023-03-23T08:25:12;96639.13;;;16.53;46.19
75013;BME280;63567;49.956;20.130;2023-03-23T08:27:39;96652.63;;;16.63;46.53
75013;BME280;63567;49.956;20.130;2023-03-23T08:30:10;96654.00;;;16.66;45.52
75013;BME280;63567;49.956;20.130;2023-03-23T08:32:36;96646.81;;;16.67;45.53
75013;BME280;63567;49.956;20.130;2023-03-23T08:35:01;96648.38;;;16.39;46.26
75013;BME280;63567;49.956;20.130;2023-03-23T08:37:27;96656.03;;;16.23;46.98
75013;BME280;63567;49.956;20.130;2023-03-23T08:39:54;96655.72;;;16.20;46.81
75013;BME280;63567;49.956;20.130;2023-03-23T08:42:20;96658.03;;;16.16;47.40
75013;BME280;63567;49.956;20.130;2023-03-23T08:44:46;96649.84;;;15.94;46.90
75013;BME280;63567;49.956;20.130;2023-03-23T08:47:11;96652.50;;;15.82;47.87
75013;BME280;63567;49.956;20.130;2023-03-23T08:49:37;96656.31;;;15.75;47.84
75013;BME280;63567;49.956;20.130;2023-03-23T08:52:02;96653.16;;;15.66;48.21
75013;BME280;63567;49.956;20.130;2023-03-23T08:54:28;96650.94;;;15.63;48.25
75013;BME280;63567;49.956;20.130;2023-03-23T08:56:55;96646.53;;;15.57;47.68
75013;BME280;63567;49.956;20.130;2023-03-23T08:59:20;96648.53;;;15.61;47.79
75013;BME280;63567;49.956;20.130;2023-03-23T09:01:46;96648.06;;;15.65;48.25
75013;BME280;63567;49.956;20.130;2023-03-23T09:04:12;96638.25;;;15.65;48.04
75013;BME280;63567;49.956;20.130;2023-03-23T09:06:39;96648.19;;;15.70;48.20
75013;BME280;63567;49.956;20.130;2023-03-23T09:09:05;96651.31;;;15.78;48.42
75013;BME280;63567;49.956;20.130;2023-03-23T09:11:34;96651.56;;;15.89;47.30
75013;BME280;63567;49.956;20.130;2023-03-23T09:14:00;96654.25;;;16.00;48.96
75013;BME280;63567;49.956;20.130;2023-03-23T09:16:26;96649.38;;;16.09;48.18
75013;BME280;63567;49.956;20.130;2023-03-23T09:18:51;96649.94;;;16.23;46.68
75013;BME280;63567;49.956;20.130;2023-03-23T09:21:16;96647.13;;;16.30;46.92
75013;BME280;63567;49.956;20.130;2023-03-23T09:23:42;96647.22;;;16.35;46.76
75013;BME280;63567;49.956;20.130;2023-03-23T09:26:09;96645.19;;;16.25;46.41
75013;BME280;63567;49.956;20.130;2023-03-23T09:28:34;96648.41;;;16.27;46.25
75013;BME280;63567;49.956;20.130;2023-03-23T09:31:00;96640.53;;;16.32;46.72
75013;BME280;63567;49.956;20.130;2023-03-23T09:33:25;96644.00;;;16.45;45.71
75013;BME280;63567;49.956;20.130;2023-03-23T09:35:51;96639.78;;;16.60;45.60
75013;BME280;63567;49.956;20.130;2023-03-23T09:38:16;96644.38;;;16.65;44.20
75013;BME280;63567;49.956;20.130;2023-03-23T09:40:49;96639.41;;;16.69;44.04
75013;BME280;63567;49.956;20.130;2023-03-23T09:43:20;96639.69;;;16.55;44.50
75013;BME280;63567;49.956;20.130;2023-03-23T09:46:10;96643.72;;;16.58;43.29
75013;BME280;63567;49.956;20.130;2023-03-23T09:51:32;96631.59;;;16.50;43.81
75013;BME280;63567;49.956;20.130;2023-03-23T09:54:07;96634.50;;;16.49;43.12
75013;BME280;63567;49.956;20.130;2023-03-23T09:56:36;96640.06;;;16.47;43.54
75013;BME280;63567;49.956;20.130;2023-03-23T09:59:17;96643.00;;;16.62;44.76
75013;BME280;63567;49.956;20.130;2023-03-23T10:01:47;96640.91;;;16.76;42.36
75013;BME280;63567;49.956;20.130;2023-03-23T10:04:32;96634.03;;;16.92;43.55
75013;BME280;63567;49.956;20.130;2023-03-23T10:07:09;96626.00;;;17.21;42.49
75013;BME280;63567;49.956;20.130;2023-03-23T10:09:35;96624.16;;;17.55;41.94
75013;BME280;63567;49.956;20.130;2023-03-23T10:12:19;96621.53;;;18.11;41.54
75013;BME280;63567;49.956;20.130;2023-03-23T10:15:02;96617.38;;;18.20;38.95
75013;BME280;63567;49.956;20.130;2023-03-23T10:20:33;96617.94;;;19.16;40.45
75013;BME280;63567;49.956;20.130;2023-03-23T10:23:12;96604.06;;;19.51;37.74
75013;BME280;63567;49.956;20.130;2023-03-23T10:25:43;96610.28;;;19.62;36.55
75013;BME280;63567;49.956;20.130;2023-03-23T10:28:16;96604.31;;;19.49;36.54
75013;BME280;63567;49.956;20.130;2023-03-23T10:30:55;96612.94;;;18.97;38.34
75013;BME280;63567;49.956;20.130;2023-03-23T10:33:33;96612.66;;;18.72;39.15
75013;BME280;63567;49.956;20.130;2023-03-23T10:36:11;96615.03;;;18.46;38.60
75013;BME280;63567;49.956;20.130;2023-03-23T10:38:41;96611.38;;;18.52;39.05
75013;BME280;63567;49.956;20.130;2023-03-23T10:41:16;96614.16;;;18.84;39.03
75013;BME280;63567;49.956;20.130;2023-03-23T10:43:43;96610.38;;;19.40;39.32
75013;BME280;63567;49.956;20.130;2023-03-23T10:48:48;96610.16;;;21.00;35.06
75013;BME280;63567;49.956;20.130;2023-03-23T10:51:18;96594.41;;;21.49;33.09
75013;BME280;63567;49.956;20.130;2023-03-23T10:53:50;96592.78;;;21.48;33.84
75013;BME280;63567;49.956;20.130;2023-03-23T10:58:49;96591.16;;;21.78;33.24
75013;BME280;63567;49.956;20.130;2023-03-23T11:01:18;96586.28;;;22.06;32.70
75013;BME280;63567;49.956;20.130;2023-03-23T11:03:47;96592.28;;;22.52;32.55
75013;BME280;63567;49.956;20.130;2023-03-23T11:06:26;96576.66;;;23.09;30.35
75013;BME280;63567;49.956;20.130;2023-03-23T11:09:02;96576.66;;;23.78;27.12
75013;BME280;63567;49.956;20.130;2023-03-23T11:11:31;96572.13;;;23.10;26.42
75013;BME280;63567;49.956;20.130;2023-03-23T11:16:33;96578.75;;;22.03;27.67
75013;BME280;63567;49.956;20.130;2023-03-23T11:19:00;96569.63;;;21.99;27.30
75013;BME280;63567;49.956;20.130;2023-03-23T11:21:26;96561.41;;;22.55;27.16
75013;BME280;63567;49.956;20.130;2023-03-23T11:23:58;96572.34;;;23.13;27.47
75013;BME280;63567;49.956;20.130;2023-03-23T11:26:27;96570.25;;;23.69;25.66
75013;BME280;63567;49.956;20.130;2023-03-23T11:29:05;96564.66;;;23.94;24.29
75013;BME280;63567;49.956;20.130;2023-03-23T11:31:35;96554.25;;;24.12;25.83
75013;BME280;63567;49.956;20.130;2023-03-23T11:34:04;96550.09;;;24.19;22.84
75013;BME280;63567;49.956;20.130;2023-03-23T11:36:39;96548.50;;;23.94;22.80
75013;BME280;63567;49.956;20.130;2023-03-23T11:41:45;96566.34;;;23.85;24.59
75013;BME280;63567;49.956;20.130;2023-03-23T11:44:11;96558.88;;;23.48;23.68
75013;BME280;63567;49.956;20.130;2023-03-23T11:47:00;96551.19;;;23.65;23.96
75013;BME280;63567;49.956;20.130;2023-03-23T11:49:47;96541.59;;;23.88;24.79
75013;BME280;63567;49.956;20.130;2023-03-23T11:55:12;96540.69;;;23.69;23.68
75013;BME280;63567;49.956;20.130;2023-03-23T11:57:39;96540.19;;;23.03;24.43
75013;BME280;63567;49.956;20.130;2023-03-23T12:00:23;96574.13;;;22.84;23.90
75013;BME280;63567;49.956;20.130;2023-03-23T12:06:01;96521.22;;;21.49;25.40
75013;BME280;63567;49.956;20.130;2023-03-23T12:08:47;96522.88;;;21.45;26.16
75013;BME280;63567;49.956;20.130;2023-03-23T12:17:04;96531.97;;;21.44;26.76
75013;BME280;63567;49.956;20.130;2023-03-23T12:19:42;96533.56;;;21.50;27.84
75013;BME280;63567;49.956;20.130;2023-03-23T12:24:52;96537.31;;;20.98;28.62
75013;BME280;63567;49.956;20.130;2023-03-23T12:27:36;96528.41;;;20.66;28.52
75013;BME280;63567;49.956;20.130;2023-03-23T12:30:29;96518.66;;;20.29;29.00
75013;BME280;63567;49.956;20.130;2023-03-23T12:33:08;96537.34;;;20.09;29.75
75013;BME280;63567;49.956;20.130;2023-03-23T12:41:26;96541.28;;;19.54;31.69
75013;BME280;63567;49.956;20.130;2023-03-23T12:44:03;96532.75;;;19.57;31.73
75013;BME280;63567;49.956;20.130;2023-03-23T12:51:50;96537.28;;;19.19;31.60
75013;BME280;63567;49.956;20.130;2023-03-23T12:57:19;96540.84;;;18.97;32.29
75013;BME280;63567;49.956;20.130;2023-03-23T12:59:53;96531.72;;;18.88;32.89
75013;BME280;63567;49.956;20.130;2023-03-23T13:02:24;96537.44;;;18.75;32.98
75013;BME280;63567;49.956;20.130;2023-03-23T13:05:08;96534.34;;;18.83;33.85
75013;BME280;63567;49.956;20.130;2023-03-23T13:07:42;96536.09;;;18.72;33.47
75013;BME280;63567;49.956;20.130;2023-03-23T13:10:51;96537.25;;;18.54;33.58
75013;BME280;63567;49.956;20.130;2023-03-23T13:12:57;96537.88;;;18.39;34.67
75013;BME280;63567;49.956;20.130;2023-03-23T13:15:41;96542.84;;;18.31;34.79
75013;BME280;63567;49.956;20.130;2023-03-23T13:21:01;96538.75;;;18.01;35.76
75013;BME280;63567;49.956;20.130;2023-03-23T13:24:02;96533.81;;;17.88;36.44
75013;BME280;63567;49.956;20.130;2023-03-23T13:26:29;96546.47;;;17.80;36.44
75013;BME280;63567;49.956;20.130;2023-03-23T13:29:16;96532.94;;;17.65;36.94
75013;BME280;63567;49.956;20.130;2023-03-23T13:31:47;96537.22;;;17.66;37.44
75013;BME280;63567;49.956;20.130;2023-03-23T13:34:31;96532.81;;;17.55;37.45
75013;BME280;63567;49.956;20.130;2023-03-23T13:37:08;96534.16;;;17.57;38.00
75013;BME280;63567;49.956;20.130;2023-03-23T13:39:57;96529.81;;;17.51;37.73
75013;BME280;63567;49.956;20.130;2023-03-23T13:42:26;96527.09;;;17.46;37.84
75013;BME280;63567;49.956;20.130;2023-03-23T13:49:50;96538.81;;;17.67;37.89
75013;BME280;63567;49.956;20.130;2023-03-23T13:52:17;96528.16;;;17.67;38.32
75013;BME280;63567;49.956;20.130;2023-03-23T13:54:45;96537.78;;;17.68;37.79
75013;BME280;63567;49.956;20.130;2023-03-23T13:57:36;96534.63;;;17.71;38.32
75013;BME280;63567;49.956;20.130;2023-03-23T14:05:40;96531.28;;;17.98;38.42
75013;BME280;63567;49.956;20.130;2023-03-23T14:13:03;96546.94;;;18.16;37.43
75013;BME280;63567;49.956;20.130;2023-03-23T14:15:30;96538.00;;;18.27;37.34
75013;BME280;63567;49.956;20.130;2023-03-23T14:17:56;96541.31;;;18.35;38.00
75013;BME280;63567;49.956;20.130;2023-03-23T14:20:29;96545.38;;;18.42;37.15